Time;durP1;ratioP1;P1;durP2;ratioP2;P2;SDS_P1;SDS_P2;PMS_P1;PMS_P2;Temp;Humidity;BMP_temperature;BMP_pressure;BME280_temperature;BME280_humidity;BME280_pressure;Samples;Min_cycle;Max_cycle;Signal;HPM_P1;HPM_P2
2021/07/25 00:00:59;;;;;;;26.70;15.27;;;19.10;92.90;;;;;;5057980;28;20040;-76
2021/07/25 00:03:25;;;;;;;21.35;16.98;;;19.10;92.90;;;;;;5057783;28;20033;-77
2021/07/25 00:05:51;;;;;;;22.52;16.38;;;19.10;92.90;;;;;;5054312;28;20040;-76
2021/07/25 00:08:16;;;;;;;14.57;13.05;;;19.10;92.80;;;;;;5055632;28;20052;-77
2021/07/25 00:10:46;;;;;;;19.35;15.18;;;19.00;93.10;;;;;;5056756;28;20059;-76
2021/07/25 00:13:13;;;;;;;17.42;14.80;;;19.00;92.80;;;;;;5074438;28;20449;-76
2021/07/25 00:15:39;;;;;;;16.15;12.98;;;19.00;93.00;;;;;;5075486;28;20020;-76
2021/07/25 00:18:05;;;;;;;19.92;15.45;;;19.00;92.80;;;;;;5057365;28;20036;-77
2021/07/25 00:20:30;;;;;;;20.05;14.65;;;18.90;92.70;;;;;;5054106;28;20051;-76
2021/07/25 00:22:57;;;;;;;17.38;13.82;;;18.90;92.70;;;;;;5041585;28;20115;-76
2021/07/25 00:25:23;;;;;;;20.05;14.80;;;18.90;92.70;;;;;;5075534;28;20104;-76
2021/07/25 00:27:55;;;;;;;18.67;15.35;;;18.80;92.60;;;;;;5056729;28;20033;-76
2021/07/25 00:30:23;;;;;;;19.45;13.95;;;18.80;92.60;;;;;;5075092;28;20037;-76
2021/07/25 00:32:49;;;;;;;19.50;14.63;;;18.80;92.70;;;;;;5073666;28;20074;-77
2021/07/25 00:35:17;;;;;;;16.73;13.50;;;18.70;92.70;;;;;;5073940;28;20432;-76
2021/07/25 00:37:47;;;;;;;18.70;14.38;;;18.70;92.70;;;;;;5073776;28;20028;-77
2021/07/25 00:40:34;;;;;;;18.35;12.77;;;18.70;92.70;;;;;;5054049;28;20386;-76
2021/07/25 00:42:59;;;;;;;15.38;12.98;;;18.70;92.70;;;;;;5073420;28;20485;-76
2021/07/25 00:45:25;;;;;;;19.33;13.60;;;18.60;92.60;;;;;;5073527;28;20037;-76
2021/07/25 00:47:51;;;;;;;15.98;13.38;;;18.70;92.60;;;;;;5056418;28;20058;-77
2021/07/25 00:50:17;;;;;;;20.02;13.50;;;18.60;92.60;;;;;;5053256;28;20060;-77
2021/07/25 00:52:43;;;;;;;20.17;13.68;;;18.60;92.50;;;;;;5060125;28;20024;-77
2021/07/25 00:55:09;;;;;;;22.30;14.88;;;18.60;92.50;;;;;;5073310;28;20045;-76
2021/07/25 00:57:36;;;;;;;16.75;13.25;;;18.60;92.40;;;;;;5056355;28;20067;-76
2021/07/25 01:00:02;;;;;;;18.08;14.40;;;18.50;92.40;;;;;;5074239;28;20482;-77
2021/07/25 01:02:34;;;;;;;16.58;13.88;;;18.50;92.40;;;;;;5057341;28;20127;-77
2021/07/25 01:05:11;;;;;;;22.52;14.32;;;18.40;92.50;;;;;;5073190;28;20020;-77
2021/07/25 01:08:02;;;;;;;20.65;14.98;;;18.40;92.50;;;;;;5073951;28;20050;-76
2021/07/25 01:10:31;;;;;;;16.15;13.95;;;18.40;92.40;;;;;;5072591;28;20024;-77
2021/07/25 01:13:00;;;;;;;15.98;12.38;;;18.30;92.40;;;;;;5072993;28;20036;-77
2021/07/25 01:15:29;;;;;;;17.17;12.63;;;18.30;92.50;;;;;;5073518;28;20040;-76
2021/07/25 01:17:55;;;;;;;16.98;13.05;;;18.30;92.50;;;;;;5072945;28;20493;-76
2021/07/25 01:20:21;;;;;;;18.83;14.85;;;18.30;92.40;;;;;;5056030;28;20083;-76
2021/07/25 01:22:53;;;;;;;21.55;15.50;;;18.30;92.40;;;;;;5052799;28;20029;-77
2021/07/25 01:25:21;;;;;;;19.00;13.73;;;18.20;92.40;;;;;;5052847;28;20021;-76
2021/07/25 01:28:01;;;;;;;15.57;12.57;;;18.20;92.50;;;;;;5042713;28;20545;-76
2021/07/25 01:30:31;;;;;;;18.40;14.57;;;18.20;92.50;;;;;;5058612;28;20099;-76
2021/07/25 01:33:07;;;;;;;19.73;13.48;;;18.10;92.40;;;;;;5060593;28;20029;-76
2021/07/25 01:35:34;;;;;;;21.10;12.85;;;18.10;92.40;;;;;;5072582;28;20063;-76
2021/07/25 01:38:00;;;;;;;15.52;13.70;;;18.10;92.40;;;;;;5072343;28;20032;-76
2021/07/25 01:40:26;;;;;;;13.82;11.50;;;18.00;92.40;;;;;;5072882;28;20093;-87
2021/07/25 01:42:54;;;;;;;20.25;13.98;;;18.00;92.40;;;;;;5073010;28;20016;-87
2021/07/25 01:45:21;;;;;;;16.88;13.63;;;18.00;92.40;;;;;;5074436;28;20147;-87
2021/07/25 01:47:46;;;;;;;17.33;13.25;;;18.00;92.40;;;;;;5072904;28;20033;-87
2021/07/25 01:50:13;;;;;;;18.95;13.15;;;18.00;92.40;;;;;;5073019;28;20031;-87
2021/07/25 01:52:40;;;;;;;16.73;13.13;;;18.00;92.40;;;;;;5072942;28;20109;-87
2021/07/25 01:55:06;;;;;;;14.35;12.18;;;18.00;92.30;;;;;;5056256;28;20090;-87
2021/07/25 01:57:32;;;;;;;19.38;13.35;;;18.00;92.30;;;;;;5055801;28;20037;-87
2021/07/25 01:59:58;;;;;;;15.45;11.60;;;17.90;92.30;;;;;;5089182;28;20445;-87
2021/07/25 02:02:23;;;;;;;14.93;11.57;;;17.90;92.30;;;;;;5089244;28;20027;-87
2021/07/25 02:04:49;;;;;;;16.67;13.10;;;17.90;92.30;;;;;;5073804;28;20473;-87
2021/07/25 02:07:15;;;;;;;17.20;12.23;;;17.90;92.30;;;;;;5073425;28;20127;-87
2021/07/25 02:09:41;;;;;;;14.60;11.05;;;17.90;92.30;;;;;;5072589;28;20095;-85
2021/07/25 02:12:08;;;;;;;14.35;11.00;;;17.80;92.30;;;;;;5072667;28;20499;-87
2021/07/25 02:14:35;;;;;;;13.27;11.23;;;17.80;92.30;;;;;;5056008;28;20029;-87
2021/07/25 02:17:01;;;;;;;15.82;11.45;;;17.80;92.20;;;;;;5073535;28;20063;-86
2021/07/25 02:19:28;;;;;;;19.00;11.60;;;17.80;92.20;;;;;;5055924;28;20106;-87
2021/07/25 02:21:54;;;;;;;14.25;10.88;;;17.70;92.20;;;;;;5073538;28;20021;-87
2021/07/25 02:24:20;;;;;;;15.98;10.65;;;17.70;92.30;;;;;;5073536;28;20416;-87
2021/07/25 02:26:49;;;;;;;14.70;10.23;;;17.70;92.30;;;;;;5072361;28;20031;-87
2021/07/25 02:29:16;;;;;;;16.38;10.48;;;17.70;92.30;;;;;;5055368;28;20033;-87
2021/07/25 02:31:41;;;;;;;12.30;10.13;;;17.70;92.30;;;;;;5055621;28;20035;-86
2021/07/25 02:34:07;;;;;;;11.73;10.32;;;17.70;92.30;;;;;;5052871;28;20120;-87
2021/07/25 02:36:33;;;;;;;13.05;9.68;;;17.70;92.30;;;;;;5072323;28;20028;-87
2021/07/25 02:38:58;;;;;;;13.95;11.00;;;17.60;92.20;;;;;;5055468;28;20024;-87
2021/07/25 02:41:24;;;;;;;14.52;10.20;;;17.60;92.20;;;;;;5072275;28;20032;-87
2021/07/25 02:43:50;;;;;;;20.23;11.02;;;17.60;92.20;;;;;;5072189;28;20031;-87
2021/07/25 02:46:16;;;;;;;13.75;9.70;;;17.60;92.20;;;;;;5072148;28;20059;-87
2021/07/25 02:48:42;;;;;;;14.32;11.13;;;17.60;92.20;;;;;;5072242;28;20434;-87
2021/07/25 02:51:08;;;;;;;12.93;10.32;;;17.60;92.30;;;;;;5071964;28;20532;-87
2021/07/25 02:53:33;;;;;;;13.52;9.80;;;17.60;92.30;;;;;;5072208;28;20058;-86
2021/07/25 02:55:59;;;;;;;17.63;11.27;;;17.60;92.30;;;;;;5055195;28;20082;-87
2021/07/25 02:58:25;;;;;;;15.48;10.70;;;17.60;92.30;;;;;;5073120;28;20083;-87
2021/07/25 03:00:50;;;;;;;13.18;11.70;;;17.60;92.30;;;;;;5071996;28;20120;-87
2021/07/25 03:03:16;;;;;;;14.15;11.18;;;17.60;92.30;;;;;;5071828;28;20024;-87
2021/07/25 03:05:42;;;;;;;13.73;10.95;;;17.60;92.30;;;;;;5071912;28;20077;-87
2021/07/25 03:08:07;;;;;;;13.82;10.57;;;17.60;92.40;;;;;;5054908;28;20028;-87
2021/07/25 03:10:33;;;;;;;13.30;9.82;;;17.60;92.40;;;;;;5075465;28;20112;-86
2021/07/25 03:12:59;;;;;;;12.35;10.75;;;17.60;92.40;;;;;;5077261;28;20041;-87
2021/07/25 03:15:24;;;;;;;12.13;10.30;;;17.60;92.40;;;;;;5075977;28;20032;-87
2021/07/25 03:17:52;;;;;;;13.18;11.50;;;17.60;92.40;;;;;;5075830;28;20040;-87
2021/07/25 03:20:18;;;;;;;15.15;11.57;;;17.50;92.30;;;;;;5075971;28;20151;-87
2021/07/25 03:22:43;;;;;;;15.93;10.52;;;17.50;92.30;;;;;;5092566;28;20502;-86
2021/07/25 03:25:09;;;;;;;16.50;10.77;;;17.50;92.30;;;;;;5058438;28;20029;-87
2021/07/25 03:27:35;;;;;;;12.65;9.52;;;17.50;92.30;;;;;;5075417;28;20039;-87
2021/07/25 03:30:01;;;;;;;10.18;8.45;;;17.50;92.40;;;;;;5058881;28;20028;-87
2021/07/25 03:32:26;;;;;;;17.15;10.10;;;17.40;92.30;;;;;;5058791;28;20039;-87
2021/07/25 03:34:52;;;;;;;12.57;9.40;;;17.40;92.30;;;;;;5076573;28;20029;-87
2021/07/25 03:37:19;;;;;;;13.40;10.05;;;17.40;92.40;;;;;;5075545;28;20029;-87
2021/07/25 03:39:47;;;;;;;12.68;9.13;;;17.40;92.40;;;;;;5076680;28;20040;-86
2021/07/25 03:42:14;;;;;;;13.13;10.63;;;17.40;92.40;;;;;;5074921;28;20055;-87
2021/07/25 03:44:41;;;;;;;13.73;10.10;;;17.30;92.40;;;;;;5076549;28;20036;-86
2021/07/25 03:47:08;;;;;;;14.02;10.93;;;17.30;92.40;;;;;;5076293;28;20028;-87
2021/07/25 03:49:33;;;;;;;14.57;9.82;;;17.30;92.40;;;;;;5076622;28;20052;-87
2021/07/25 03:51:59;;;;;;;13.27;10.30;;;17.30;92.50;;;;;;5076271;28;20032;-86
2021/07/25 03:54:25;;;;;;;16.13;11.80;;;17.30;92.50;;;;;;5074911;28;20396;-87
2021/07/25 03:56:51;;;;;;;16.92;11.95;;;17.30;92.50;;;;;;5058429;28;20028;-87
2021/07/25 03:59:17;;;;;;;15.23;10.93;;;17.30;92.60;;;;;;5075085;28;20059;-87
2021/07/25 04:01:42;;;;;;;15.70;10.77;;;17.30;92.50;;;;;;5058145;28;20492;-87
2021/07/25 04:04:08;;;;;;;15.45;10.05;;;17.30;92.50;;;;;;5075036;28;20028;-87
2021/07/25 04:06:33;;;;;;;15.77;11.38;;;17.30;92.50;;;;;;5074983;28;20028;-87
2021/07/25 04:09:00;;;;;;;16.00;12.05;;;17.30;92.60;;;;;;5075888;28;20028;-87
2021/07/25 04:11:25;;;;;;;17.17;11.68;;;17.20;92.50;;;;;;5057965;28;20028;-87
2021/07/25 04:13:51;;;;;;;15.52;10.80;;;17.30;92.50;;;;;;5074893;28;20027;-88
2021/07/25 04:16:17;;;;;;;12.07;9.73;;;17.20;92.50;;;;;;5076068;28;20032;-87
2021/07/25 04:18:43;;;;;;;14.73;11.73;;;17.30;92.90;;;;;;5075813;28;20051;-87
2021/07/25 04:21:09;;;;;;;13.15;10.90;;;17.20;92.60;;;;;;5074031;28;20469;-86
2021/07/25 04:23:38;;;;;;;13.60;10.95;;;17.30;92.60;;;;;;5074417;28;20028;-86
2021/07/25 04:26:04;;;;;;;12.98;10.25;;;17.30;92.90;;;;;;5074658;28;20047;-87
2021/07/25 04:28:30;;;;;;;15.00;11.27;;;17.30;92.60;;;;;;5074448;28;20548;-86
2021/07/25 04:30:56;;;;;;;15.13;11.77;;;17.40;92.70;;;;;;5057693;28;20058;-87
2021/07/25 04:33:22;;;;;;;13.95;10.55;;;17.40;92.70;;;;;;5074510;28;20061;-87
2021/07/25 04:35:48;;;;;;;16.23;12.55;;;17.40;92.70;;;;;;5074375;28;20155;-87
2021/07/25 04:38:14;;;;;;;20.13;13.98;;;17.40;92.70;;;;;;5057688;28;20028;-87
2021/07/25 04:40:43;;;;;;;19.00;12.55;;;17.50;93.00;;;;;;5057614;28;20059;-87
2021/07/25 04:43:13;;;;;;;21.88;12.77;;;17.50;92.80;;;;;;5075661;28;20021;-87
2021/07/25 04:46:15;;;;;;;17.08;12.13;;;17.60;92.80;;;;;;5073862;28;20033;-87
2021/07/25 04:48:54;;;;;;;16.77;11.85;;;17.50;92.80;;;;;;5090881;28;20028;-87
2021/07/25 04:51:22;;;;;;;13.90;10.40;;;17.50;92.80;;;;;;5075301;28;20028;-87
2021/07/25 04:53:51;;;;;;;17.52;12.27;;;17.60;92.80;;;;;;5073784;28;20024;-87
2021/07/25 04:56:19;;;;;;;18.75;12.88;;;17.60;92.80;;;;;;5075050;28;20045;-87
2021/07/25 04:58:48;;;;;;;;;;;17.60;92.80;;;;;;5074240;28;20028;-87
2021/07/25 05:01:18;;;;;;;15.90;10.93;;;17.60;92.70;;;;;;5073972;28;19908;-87
2021/07/25 05:03:44;;;;;;;19.98;12.65;;;17.60;92.80;;;;;;5075134;28;20021;-86
2021/07/25 05:06:13;;;;;;;23.30;13.50;;;17.60;92.80;;;;;;5073134;28;20028;-76
2021/07/25 05:08:39;;;;;;;21.95;13.68;;;17.60;92.80;;;;;;5072999;28;20035;-77
2021/07/25 05:11:21;;;;;;;15.88;10.45;;;17.60;92.80;;;;;;5053213;28;20033;-77
2021/07/25 05:13:50;;;;;;;19.48;12.75;;;17.70;92.90;;;;;;5062531;28;20039;-76
2021/07/25 05:16:38;;;;;;;;;;;17.70;92.80;;;;;;5074853;28;20039;-77
2021/07/25 05:19:28;;;;;;;16.30;11.52;;;17.80;92.70;;;;;;5066698;28;19912;-78
2021/07/25 05:22:15;;;;;;;15.18;11.43;;;17.80;92.80;;;;;;5073311;28;20455;-76
2021/07/25 05:24:44;;;;;;;17.77;11.50;;;17.80;92.80;;;;;;5074346;28;20110;-77
2021/07/25 05:27:21;;;;;;;20.52;12.00;;;17.80;92.80;;;;;;5072896;28;20090;-77
2021/07/25 05:29:49;;;;;;;16.15;11.30;;;18.00;92.80;;;;;;5072447;28;20111;-76
2021/07/25 05:32:16;;;;;;;16.50;11.52;;;18.00;92.80;;;;;;5072756;28;20031;-76
2021/07/25 05:34:41;;;;;;;14.60;11.20;;;18.10;92.80;;;;;;5054798;28;20033;-76
2021/07/25 05:37:07;;;;;;;16.70;11.18;;;18.10;92.70;;;;;;5072540;28;20086;-76
2021/07/25 05:39:33;;;;;;;16.10;10.75;;;18.20;92.80;;;;;;5072301;28;20489;-76
2021/07/25 05:41:58;;;;;;;15.35;9.50;;;18.20;92.70;;;;;;5052177;28;20115;-76
2021/07/25 05:44:24;;;;;;;16.10;10.23;;;18.30;92.70;;;;;;5050027;28;20123;-76
2021/07/25 05:46:50;;;;;;;15.00;10.15;;;18.30;92.70;;;;;;5072327;28;20035;-76
2021/07/25 05:49:15;;;;;;;13.20;10.15;;;18.40;92.70;;;;;;5055980;28;20036;-76
2021/07/25 05:51:41;;;;;;;18.20;9.80;;;18.40;92.60;;;;;;5072524;28;20035;-76
2021/07/25 05:54:06;;;;;;;17.13;10.18;;;18.50;92.60;;;;;;5072554;28;20035;-76
2021/07/25 05:56:32;;;;;;;17.15;9.10;;;18.50;92.60;;;;;;5055618;28;20418;-77
2021/07/25 05:58:58;;;;;;;11.25;8.25;;;18.60;92.50;;;;;;5072465;28;20028;-76
2021/07/25 06:01:23;;;;;;;14.07;9.88;;;18.60;92.80;;;;;;5055704;28;20025;-77
2021/07/25 06:03:49;;;;;;;11.73;7.68;;;18.70;92.60;;;;;;5055624;28;20073;-76
2021/07/25 06:06:15;;;;;;;11.65;7.80;;;18.70;92.60;;;;;;5055316;28;20381;-77
2021/07/25 06:08:41;;;;;;;13.43;8.50;;;18.80;92.70;;;;;;5049433;28;20032;-77
2021/07/25 06:11:07;;;;;;;13.07;8.27;;;18.80;92.60;;;;;;5039068;28;20039;-76
2021/07/25 06:13:33;;;;;;;14.20;8.45;;;18.90;92.70;;;;;;5055480;28;20033;-76
2021/07/25 06:15:59;;;;;;;16.73;8.15;;;19.00;92.70;;;;;;5072106;28;20029;-76
2021/07/25 06:18:24;;;;;;;14.13;7.65;;;19.00;92.60;;;;;;5073896;28;20032;-76
2021/07/25 06:20:50;;;;;;;12.82;7.85;;;19.10;92.60;;;;;;5072155;28;20024;-76
2021/07/25 06:23:16;;;;;;;14.50;7.35;;;19.10;92.50;;;;;;5055553;28;20027;-77
2021/07/25 06:25:42;;;;;;;14.25;7.43;;;19.20;92.50;;;;;;5054949;28;20412;-76
2021/07/25 06:28:08;;;;;;;9.57;6.97;;;19.30;92.50;;;;;;5081308;28;20032;-76
2021/07/25 06:30:34;;;;;;;14.10;7.30;;;19.30;92.40;;;;;;5071795;28;20074;-77
2021/07/25 06:33:08;;;;;;;9.93;6.85;;;19.40;92.30;;;;;;5071687;28;20029;-76
2021/07/25 06:35:40;;;;;;;16.13;6.47;;;19.50;92.20;;;;;;5071680;28;20029;-76
2021/07/25 06:38:09;;;;;;;10.52;5.90;;;19.60;92.10;;;;;;5072080;28;20120;-87
2021/07/25 06:40:38;;;;;;;8.02;5.53;;;19.60;92.00;;;;;;5055513;28;20034;-87
2021/07/25 06:43:05;;;;;;;11.13;5.82;;;19.70;92.00;;;;;;5073489;28;20024;-87
2021/07/25 06:45:33;;;;;;;8.00;5.70;;;19.70;91.90;;;;;;5073064;28;20028;-86
2021/07/25 06:47:58;;;;;;;11.02;5.85;;;19.80;91.80;;;;;;5071672;28;20036;-86
2021/07/25 06:50:26;;;;;;;10.05;5.63;;;19.90;91.50;;;;;;5073308;28;20028;-87
2021/07/25 06:52:53;;;;;;;11.98;6.05;;;20.00;91.40;;;;;;5055115;28;20036;-86
2021/07/25 06:55:20;;;;;;;10.02;5.85;;;20.10;91.30;;;;;;5073168;28;20398;-87
2021/07/25 06:57:47;;;;;;;9.32;5.47;;;20.20;91.20;;;;;;5071911;28;20496;-87
2021/07/25 07:00:12;;;;;;;12.10;6.10;;;20.30;91.00;;;;;;5071955;28;20021;-87
2021/07/25 07:02:54;;;;;;;13.02;6.03;;;20.40;90.90;;;;;;5071832;28;20507;-87
2021/07/25 07:05:29;;;;;;;9.30;5.22;;;20.50;90.60;;;;;;5071741;28;20051;-86
2021/07/25 07:08:00;;;;;;;13.20;6.32;;;20.70;90.60;;;;;;5071690;28;20062;-87
2021/07/25 07:10:28;;;;;;;12.48;5.82;;;20.70;90.10;;;;;;5073120;28;20429;-86
2021/07/25 07:12:56;;;;;;;13.30;5.60;;;20.80;90.00;;;;;;5073019;28;20492;-86
2021/07/25 07:15:23;;;;;;;11.50;5.60;;;20.90;89.60;;;;;;5072921;28;20033;-86
2021/07/25 07:17:54;;;;;;;12.73;5.97;;;21.00;89.00;;;;;;5083721;28;20421;-86
2021/07/25 07:20:21;;;;;;;11.52;5.53;;;21.10;88.80;;;;;;5071729;28;20027;-87
2021/07/25 07:22:59;;;;;;;12.32;5.57;;;21.20;88.60;;;;;;5071560;28;20012;-87
2021/07/25 07:25:27;;;;;;;12.30;5.78;;;21.30;88.30;;;;;;5071728;28;20031;-86
2021/07/25 07:27:53;;;;;;;8.25;5.78;;;21.40;88.10;;;;;;5071826;28;20021;-87
2021/07/25 07:30:21;;;;;;;10.98;5.28;;;21.50;88.00;;;;;;5071398;28;20024;-87
2021/07/25 07:32:47;;;;;;;8.60;4.82;;;21.70;87.30;;;;;;5070612;28;20082;-85
2021/07/25 07:35:13;;;;;;;8.40;5.30;;;21.80;86.90;;;;;;5054040;28;20029;-82
2021/07/25 07:37:39;;;;;;;13.00;5.10;;;21.80;86.30;;;;;;5070478;28;20112;-83
2021/07/25 07:40:05;;;;;;;7.03;4.90;;;22.00;86.80;;;;;;5054434;28;20477;-83
2021/07/25 07:42:31;;;;;;;8.82;5.00;;;22.10;86.20;;;;;;5054020;28;20032;-84
2021/07/25 07:44:57;;;;;;;8.13;4.63;;;22.20;85.30;;;;;;5071339;28;20389;-86
2021/07/25 07:47:23;;;;;;;7.32;4.65;;;22.30;84.90;;;;;;5070962;28;20032;-82
2021/07/25 07:49:52;;;;;;;10.75;4.85;;;22.30;83.70;;;;;;5071320;28;20050;-84
2021/07/25 07:52:18;;;;;;;10.60;4.45;;;22.40;83.60;;;;;;5072567;28;20524;-83
2021/07/25 07:54:44;;;;;;;8.93;4.95;;;22.40;83.40;;;;;;5071124;28;20139;-84
2021/07/25 07:57:12;;;;;;;11.10;5.05;;;22.40;83.40;;;;;;5074090;28;20090;-83
2021/07/25 07:59:38;;;;;;;11.45;4.90;;;22.50;83.40;;;;;;5055927;28;20028;-84
2021/07/25 08:02:03;;;;;;;10.00;4.60;;;22.60;83.30;;;;;;5054948;28;20410;-83
2021/07/25 08:04:29;;;;;;;7.60;4.30;;;22.80;82.70;;;;;;5054751;28;20025;-83
2021/07/25 08:06:55;;;;;;;9.00;3.80;;;22.90;81.70;;;;;;5075389;28;20028;-83
2021/07/25 08:09:20;;;;;;;7.82;4.20;;;23.00;81.30;;;;;;5089735;28;20093;-83
2021/07/25 08:11:46;;;;;;;7.93;4.28;;;23.10;80.50;;;;;;5083755;28;20029;-90
2021/07/25 08:14:19;;;;;;;9.32;4.40;;;23.20;79.80;;;;;;5075404;28;20036;-90
2021/07/25 08:16:45;;;;;;;6.95;3.97;;;23.20;79.90;;;;;;5056235;28;20027;-90
2021/07/25 08:19:11;;;;;;;7.35;4.30;;;23.30;79.70;;;;;;5055081;28;20021;-89
2021/07/25 08:21:39;;;;;;;7.15;3.75;;;23.30;80.10;;;;;;5038242;28;20025;-88
2021/07/25 08:24:04;;;;;;;6.38;3.92;;;23.40;79.30;;;;;;5060635;28;20036;-91
2021/07/25 08:26:30;;;;;;;7.40;4.07;;;23.50;79.30;;;;;;5075267;28;20388;-89
2021/07/25 08:28:56;;;;;;;7.75;4.38;;;23.60;79.20;;;;;;5075150;28;20024;-90
2021/07/25 08:31:21;;;;;;;7.25;3.67;;;23.70;78.70;;;;;;5071581;28;20013;-89
2021/07/25 08:33:47;;;;;;;7.78;3.97;;;23.90;78.50;;;;;;5074208;28;20036;-88
2021/07/25 08:36:13;;;;;;;6.50;3.67;;;24.00;78.10;;;;;;5057901;28;20028;-88
2021/07/25 08:38:39;;;;;;;6.65;3.33;;;24.10;77.30;;;;;;5054304;28;20044;-89
2021/07/25 08:41:12;;;;;;;8.68;3.97;;;24.20;76.50;;;;;;5035850;28;20036;-87
2021/07/25 08:43:43;;;;;;;10.50;4.03;;;24.20;76.10;;;;;;5074153;28;20028;-88
2021/07/25 08:46:16;;;;;;;4.78;3.83;;;24.30;74.90;;;;;;5075573;28;20028;-88
2021/07/25 08:48:47;;;;;;;8.95;4.07;;;24.30;74.80;;;;;;5068396;28;20554;-75
2021/07/25 08:51:22;;;;;;;5.03;3.60;;;24.40;75.30;;;;;;5070750;28;20361;-75
2021/07/25 08:54:04;;;;;;;9.65;3.85;;;24.50;74.40;;;;;;5070964;28;20177;-75
2021/07/25 08:56:33;;;;;;;5.43;3.13;;;24.60;75.20;;;;;;5073257;28;20032;-84
2021/07/25 08:59:07;;;;;;;7.53;3.67;;;24.70;75.50;;;;;;5074951;28;20111;-85
2021/07/25 09:01:38;;;;;;;6.20;3.50;;;24.80;74.40;;;;;;5074845;28;20031;-84
2021/07/25 09:04:05;;;;;;;8.43;3.78;;;24.90;75.00;;;;;;5072574;28;20035;-86
2021/07/25 09:06:47;;;;;;;5.22;3.28;;;25.00;74.60;;;;;;5056943;28;20028;-86
2021/07/25 09:09:13;;;;;;;7.22;3.60;;;25.10;73.00;;;;;;5054541;28;20051;-86
2021/07/25 09:11:39;;;;;;;5.28;3.50;;;25.20;72.10;;;;;;5068846;28;20024;-88
2021/07/25 09:14:05;;;;;;;7.95;3.00;;;25.20;71.90;;;;;;5073218;28;20036;-85
2021/07/25 09:16:32;;;;;;;4.82;3.20;;;25.30;71.50;;;;;;5055376;28;20393;-86
2021/07/25 09:18:58;;;;;;;7.18;3.08;;;25.40;71.60;;;;;;5070204;28;20028;-86
2021/07/25 09:21:40;;;;;;;5.25;3.10;;;25.50;70.30;;;;;;5073452;28;20107;-85
2021/07/25 09:24:27;;;;;;;5.30;3.20;;;25.60;69.90;;;;;;5072634;28;20020;-86
2021/07/25 09:27:05;;;;;;;5.05;3.00;;;25.60;68.40;;;;;;5072370;28;20021;-86
2021/07/25 09:29:37;;;;;;;4.45;2.90;;;25.60;68.30;;;;;;5058482;28;20511;-86
2021/07/25 09:32:13;;;;;;;5.88;3.00;;;25.70;68.50;;;;;;5072714;28;20039;-86
2021/07/25 09:34:44;;;;;;;6.10;2.97;;;25.80;68.80;;;;;;5059976;28;20174;-85
2021/07/25 09:37:15;;;;;;;7.70;2.70;;;25.90;68.90;;;;;;5052619;28;20029;-86
2021/07/25 09:40:01;;;;;;;4.28;2.63;;;26.00;67.20;;;;;;5071215;28;20477;-86
2021/07/25 09:42:32;;;;;;;4.60;2.58;;;26.10;67.60;;;;;;5085157;28;20045;-87
2021/07/25 09:45:01;;;;;;;7.20;2.58;;;26.10;66.10;;;;;;5055497;28;20028;-87
2021/07/25 09:47:37;;;;;;;4.60;2.58;;;26.20;65.90;;;;;;5056442;28;20032;-88
2021/07/25 09:50:08;;;;;;;6.57;2.42;;;26.20;65.90;;;;;;5072971;28;20024;-87
2021/07/25 09:52:38;;;;;;;4.20;2.50;;;26.30;65.80;;;;;;5072955;28;20086;-87
2021/07/25 09:55:08;;;;;;;6.30;2.20;;;26.40;65.90;;;;;;5055879;28;20045;-87
2021/07/25 09:57:38;;;;;;;5.32;2.13;;;26.50;65.10;;;;;;5055844;28;20223;-85
2021/07/25 10:00:13;;;;;;;5.53;2.17;;;26.60;64.50;;;;;;5056556;28;20021;-86
2021/07/25 10:02:45;;;;;;;6.03;2.40;;;26.60;63.30;;;;;;5055955;28;20123;-86
2021/07/25 10:05:19;;;;;;;4.63;2.45;;;26.60;63.30;;;;;;5072219;28;20473;-86
2021/07/25 10:07:46;;;;;;;5.05;2.42;;;26.70;62.70;;;;;;5072392;28;20036;-86
2021/07/25 10:10:17;;;;;;;3.35;2.10;;;26.70;62.40;;;;;;5072423;28;20089;-86
2021/07/25 10:12:44;;;;;;;4.03;2.00;;;26.80;63.50;;;;;;5072352;28;20025;-85
2021/07/25 10:15:20;;;;;;;4.27;2.20;;;26.80;63.20;;;;;;5072409;28;20031;-85
2021/07/25 10:17:49;;;;;;;3.95;2.38;;;26.90;61.90;;;;;;5073567;28;20024;-78
2021/07/25 10:20:19;;;;;;;4.85;1.90;;;26.90;61.80;;;;;;5072750;28;20032;-78
2021/07/25 10:22:49;;;;;;;5.22;2.65;;;27.00;62.00;;;;;;5072986;28;20085;-86
2021/07/25 10:25:16;;;;;;;4.32;2.20;;;27.10;60.90;;;;;;5072330;28;20504;-86
2021/07/25 10:27:45;;;;;;;5.05;2.20;;;27.20;62.20;;;;;;5055898;28;20473;-87
2021/07/25 10:30:12;;;;;;;5.57;2.45;;;27.20;62.30;;;;;;5073734;28;20543;-85
2021/07/25 10:32:39;;;;;;;5.43;2.13;;;27.30;62.00;;;;;;5072271;28;20154;-86
2021/07/25 10:35:07;;;;;;;4.40;2.10;;;27.30;60.70;;;;;;5072309;28;20063;-86
2021/07/25 10:37:36;;;;;;;4.65;2.45;;;27.40;60.80;;;;;;5071919;28;20052;-86
2021/07/25 10:40:03;;;;;;;6.47;2.15;;;27.50;61.70;;;;;;5089056;28;20044;-86
2021/07/25 10:42:31;;;;;;;4.38;1.80;;;27.50;60.60;;;;;;5073174;28;20032;-86
2021/07/25 10:44:57;;;;;;;5.63;2.13;;;27.60;61.10;;;;;;5072352;28;20085;-86
2021/07/25 10:47:31;;;;;;;4.10;1.90;;;27.70;60.90;;;;;;5072044;28;20270;-86
2021/07/25 10:50:00;;;;;;;5.18;1.75;;;27.70;59.80;;;;;;5072209;28;20024;-86
2021/07/25 10:52:42;;;;;;;4.00;1.48;;;27.70;59.90;;;;;;5071977;28;20154;-85
2021/07/25 10:55:08;;;;;;;4.53;1.77;;;27.70;59.10;;;;;;5072733;28;20070;-81
2021/07/25 10:57:59;;;;;;;6.45;1.95;;;27.70;58.70;;;;;;5072301;28;20040;-82
2021/07/25 11:00:41;;;;;;;3.90;1.92;;;27.60;59.20;;;;;;5065607;28;20108;-81
2021/07/25 11:03:07;;;;;;;4.82;1.67;;;27.70;58.50;;;;;;5069007;28;20404;-82
2021/07/25 11:05:33;;;;;;;2.80;1.45;;;27.80;58.50;;;;;;5071618;28;20035;-81
2021/07/25 11:08:01;;;;;;;3.40;1.55;;;27.90;55.70;;;;;;5073043;28;20052;-82
2021/07/25 11:10:31;;;;;;;4.10;1.50;;;28.00;56.00;;;;;;5072892;28;20040;-81
2021/07/25 11:12:57;;;;;;;3.17;1.42;;;28.00;57.00;;;;;;5072994;28;20032;-82
2021/07/25 11:15:31;;;;;;;5.40;1.63;;;28.10;56.60;;;;;;5071595;28;20147;-81
2021/07/25 11:18:01;;;;;;;2.50;1.40;;;28.20;56.50;;;;;;5072407;28;20020;-82
2021/07/25 11:20:52;;;;;;;2.28;1.40;;;28.20;56.80;;;;;;5071165;28;20020;-82
2021/07/25 11:23:20;;;;;;;4.53;1.65;;;28.30;56.20;;;;;;5068597;28;20016;-82
2021/07/25 11:25:47;;;;;;;3.20;1.50;;;28.30;56.70;;;;;;5072267;28;20025;-83
2021/07/25 11:28:43;;;;;;;3.15;1.60;;;28.40;55.90;;;;;;5072534;28;20488;-84
2021/07/25 11:31:10;;;;;;;3.10;1.45;;;28.50;54.80;;;;;;5066542;28;20485;-82
2021/07/25 11:33:45;;;;;;;4.63;1.60;;;28.60;55.50;;;;;;5075495;28;20028;-83
2021/07/25 11:36:15;;;;;;;6.07;1.85;;;28.70;55.30;;;;;;5076673;28;20063;-82
2021/07/25 11:38:42;;;;;;;5.10;1.40;;;28.70;55.30;;;;;;5076624;28;20029;-84
2021/07/25 11:41:09;;;;;;;5.05;1.40;;;28.70;55.60;;;;;;5075475;28;20418;-84
2021/07/25 11:44:01;;;;;;;4.38;1.40;;;28.90;55.00;;;;;;5076555;28;20362;-84
2021/07/25 11:46:31;;;;;;;1.88;1.35;;;29.00;52.80;;;;;;5075352;28;20036;-84
2021/07/25 11:49:17;;;;;;;4.57;1.23;;;29.00;52.10;;;;;;5056533;28;20033;-82
2021/07/25 11:51:48;;;;;;;2.13;1.45;;;29.10;52.90;;;;;;5056382;28;20029;-83
2021/07/25 11:54:18;;;;;;;3.50;1.30;;;29.20;51.70;;;;;;5071768;28;20035;-82
2021/07/25 11:57:01;;;;;;;2.72;1.42;;;29.10;52.80;;;;;;5075998;28;20044;-85
2021/07/25 11:59:28;;;;;;;2.88;1.40;;;29.00;52.10;;;;;;5076376;28;20067;-84
2021/07/25 12:01:54;;;;;;;2.83;1.60;;;28.90;52.60;;;;;;5076145;28;20468;-85
2021/07/25 12:04:28;;;;;;;5.07;1.50;;;28.60;53.90;;;;;;5074804;28;20025;-83
2021/07/25 12:07:06;;;;;;;4.65;1.60;;;28.20;54.10;;;;;;5075931;28;20025;-85
2021/07/25 12:09:33;;;;;;;5.03;1.40;;;27.70;56.50;;;;;;5068236;28;20048;-85
2021/07/25 12:12:12;;;;;;;3.67;1.25;;;27.30;57.20;;;;;;5056925;28;20037;-86
2021/07/25 12:14:41;;;;;;;4.80;1.60;;;26.80;58.30;;;;;;5076134;28;20062;-86
2021/07/25 12:17:07;;;;;;;2.97;1.40;;;26.40;59.40;;;;;;5076299;28;20020;-89
2021/07/25 12:19:36;;;;;;;2.83;1.60;;;26.20;60.30;;;;;;5075348;28;20052;-90
2021/07/25 12:22:14;;;;;;;3.90;1.42;;;25.90;62.30;;;;;;5074978;28;20114;-90
2021/07/25 12:24:42;;;;;;;4.07;1.63;;;25.60;64.00;;;;;;5076203;28;20020;-90
2021/07/25 12:27:30;;;;;;;6.32;1.80;;;25.40;66.60;;;;;;5075896;28;20539;-90
2021/07/25 12:30:16;;;;;;;3.60;1.70;;;25.10;69.80;;;;;;5075968;28;20110;-89
2021/07/25 12:32:43;;;;;;;5.55;1.70;;;25.00;71.30;;;;;;5074612;28;20116;-87
2021/07/25 12:35:09;;;;;;;5.20;1.67;;;25.00;72.40;;;;;;5058146;28;20058;-88
2021/07/25 12:37:40;;;;;;;7.13;1.88;;;24.90;71.90;;;;;;5075539;28;20277;-88
2021/07/25 12:40:21;;;;;;;2.88;1.50;;;25.00;72.10;;;;;;5075568;28;20031;-87
2021/07/25 12:42:50;;;;;;;1.73;1.48;;;25.10;72.80;;;;;;5075114;28;20029;-88
2021/07/25 12:45:33;;;;;;;5.30;1.90;;;25.40;73.70;;;;;;5075498;28;20095;-88
2021/07/25 12:48:12;;;;;;;2.65;1.45;;;25.80;71.80;;;;;;5074080;28;20029;-88